sensor_id;sensor_type;location;lat;lon;timestamp;noise_LAeq;noise_LA_min;noise_LA_max;noise_LA01;noise_LA95
64393;Laerm;50712;49.506;10.400;2022-11-20T00:00:04;28.31;27.19;30.99;;
64393;Laerm;50712;49.506;10.400;2022-11-20T00:00:37;28.30;27.11;29.71;;
64393;Laerm;50712;49.506;10.400;2022-11-20T00:01:10;28.32;27.19;32.19;;
64393;Laerm;50712;49.506;10.400;2022-11-20T00:01:40;28.29;27.23;31.00;;
64393;Laerm;50712;49.506;10.400;2022-11-20T00:02:11;28.34;27.18;31.94;;
64393;Laerm;50712;49.506;10.400;2022-11-20T00:02:41;28.31;27.24;32.07;;
64393;Laerm;50712;49.506;10.400;2022-11-20T00:03:12;28.42;27.22;33.64;;
64393;Laerm;50712;49.506;10.400;2022-11-20T00:03:43;46.00;28.34;56.54;;
64393;Laerm;50712;49.506;10.400;2022-11-20T00:04:13;46.04;38.82;54.16;;
64393;Laerm;50712;49.506;10.400;2022-11-20T00:04:44;43.49;32.06;54.95;;
64393;Laerm;50712;49.506;10.400;2022-11-20T00:05:14;34.09;28.33;43.03;;
64393;Laerm;50712;49.506;10.400;2022-11-20T00:06:18;28.48;27.19;33.31;;
64393;Laerm;50712;49.506;10.400;2022-11-20T00:06:49;28.34;27.21;30.24;;
64393;Laerm;50712;49.506;10.400;2022-11-20T00:07:19;28.39;27.25;31.55;;
64393;Laerm;50712;49.506;10.400;2022-11-20T00:07:49;28.54;27.39;30.23;;
64393;Laerm;50712;49.506;10.400;2022-11-20T00:08:20;28.66;27.43;33.64;;
64393;Laerm;50712;49.506;10.400;2022-11-20T00:08:51;28.39;27.14;31.34;;
64393;Laerm;50712;49.506;10.400;2022-11-20T00:09:24;28.41;27.06;35.49;;
64393;Laerm;50712;49.506;10.400;2022-11-20T00:09:54;28.76;27.38;40.73;;
64393;Laerm;50712;49.506;10.400;2022-11-20T00:10:24;28.38;27.22;36.23;;
64393;Laerm;50712;49.506;10.400;2022-11-20T00:10:55;28.36;27.16;32.08;;
64393;Laerm;50712;49.506;10.400;2022-11-20T00:11:26;28.39;27.32;35.27;;
64393;Laerm;50712;49.506;10.400;2022-11-20T00:11:57;28.50;27.11;41.74;;
64393;Laerm;50712;49.506;10.400;2022-11-20T00:12:28;28.39;26.70;29.91;;
64393;Laerm;50712;49.506;10.400;2022-11-20T00:12:58;28.65;27.57;34.68;;
64393;Laerm;50712;49.506;10.400;2022-11-20T00:13:28;28.43;27.23;34.60;;
64393;Laerm;50712;49.506;10.400;2022-11-20T00:14:00;28.61;27.26;42.61;;
64393;Laerm;50712;49.506;10.400;2022-11-20T00:14:31;28.95;27.19;38.19;;
64393;Laerm;50712;49.506;10.400;2022-11-20T00:15:02;29.01;27.31;32.93;;
64393;Laerm;50712;49.506;10.400;2022-11-20T00:15:32;28.74;27.35;35.96;;
64393;Laerm;50712;49.506;10.400;2022-11-20T00:16:05;28.41;27.20;36.87;;
64393;Laerm;50712;49.506;10.400;2022-11-20T00:16:35;28.38;27.15;32.97;;
64393;Laerm;50712;49.506;10.400;2022-11-20T00:17:05;28.44;27.15;37.23;;
64393;Laerm;50712;49.506;10.400;2022-11-20T00:17:36;28.61;27.23;36.49;;
64393;Laerm;50712;49.506;10.400;2022-11-20T00:18:06;28.45;27.23;35.41;;
64393;Laerm;50712;49.506;10.400;2022-11-20T00:18:36;28.44;27.31;30.79;;
64393;Laerm;50712;49.506;10.400;2022-11-20T00:19:07;28.43;27.26;29.73;;
64393;Laerm;50712;49.506;10.400;2022-11-20T00:19:37;28.50;27.15;35.34;;
64393;Laerm;50712;49.506;10.400;2022-11-20T00:20:38;28.46;27.30;35.22;;
64393;Laerm;50712;49.506;10.400;2022-11-20T00:21:17;28.40;27.19;36.28;;
64393;Laerm;50712;49.506;10.400;2022-11-20T00:21:48;28.38;27.19;38.07;;
64393;Laerm;50712;49.506;10.400;2022-11-20T00:22:21;28.72;27.22;35.24;;
64393;Laerm;50712;49.506;10.400;2022-11-20T00:22:52;28.54;27.17;43.81;;
64393;Laerm;50712;49.506;10.400;2022-11-20T00:23:22;28.32;27.10;33.02;;
64393;Laerm;50712;49.506;10.400;2022-11-20T00:23:55;28.36;26.58;38.69;;
64393;Laerm;50712;49.506;10.400;2022-11-20T00:24:25;28.38;27.15;32.96;;
64393;Laerm;50712;49.506;10.400;2022-11-20T00:24:56;28.35;27.23;34.60;;
64393;Laerm;50712;49.506;10.400;2022-11-20T00:25:27;28.32;26.98;34.63;;
64393;Laerm;50712;49.506;10.400;2022-11-20T00:26:14;28.36;27.02;37.55;;
64393;Laerm;50712;49.506;10.400;2022-11-20T00:27:15;28.56;27.14;33.03;;
64393;Laerm;50712;49.506;10.400;2022-11-20T00:27:46;28.53;27.35;42.41;;
64393;Laerm;50712;49.506;10.400;2022-11-20T00:28:16;28.47;26.99;38.45;;
64393;Laerm;50712;49.506;10.400;2022-11-20T00:29:21;28.44;27.17;35.56;;
64393;Laerm;50712;49.506;10.400;2022-11-20T00:29:52;28.37;27.24;30.58;;
64393;Laerm;50712;49.506;10.400;2022-11-20T00:30:22;28.59;26.70;35.64;;
64393;Laerm;50712;49.506;10.400;2022-11-20T00:30:54;28.36;27.01;35.32;;
64393;Laerm;50712;49.506;10.400;2022-11-20T00:31:30;28.46;27.22;34.37;;
64393;Laerm;50712;49.506;10.400;2022-11-20T00:32:01;28.46;27.30;33.74;;
64393;Laerm;50712;49.506;10.400;2022-11-20T00:32:31;28.27;27.11;31.27;;
64393;Laerm;50712;49.506;10.400;2022-11-20T00:33:01;28.34;26.91;34.34;;
64393;Laerm;50712;49.506;10.400;2022-11-20T00:33:32;28.26;27.16;33.08;;
64393;Laerm;50712;49.506;10.400;2022-11-20T00:34:02;28.30;27.03;32.28;;
64393;Laerm;50712;49.506;10.400;2022-11-20T00:34:33;28.41;27.16;33.68;;
64393;Laerm;50712;49.506;10.400;2022-11-20T00:35:03;28.35;27.17;33.93;;
64393;Laerm;50712;49.506;10.400;2022-11-20T00:35:34;28.31;27.07;33.64;;
64393;Laerm;50712;49.506;10.400;2022-11-20T00:36:09;28.36;27.27;31.10;;
64393;Laerm;50712;49.506;10.400;2022-11-20T00:36:40;28.58;27.29;36.45;;
64393;Laerm;50712;49.506;10.400;2022-11-20T00:37:10;34.07;28.27;42.89;;
64393;Laerm;50712;49.506;10.400;2022-11-20T00:37:41;34.69;29.52;41.64;;
64393;Laerm;50712;49.506;10.400;2022-11-20T00:38:11;31.55;28.39;36.83;;
64393;Laerm;50712;49.506;10.400;2022-11-20T00:38:42;44.43;30.30;55.93;;
64393;Laerm;50712;49.506;10.400;2022-11-20T00:39:13;44.21;33.76;56.17;;
64393;Laerm;50712;49.506;10.400;2022-11-20T00:39:43;39.15;30.88;47.53;;
64393;Laerm;50712;49.506;10.400;2022-11-20T00:40:13;35.14;30.07;43.46;;
64393;Laerm;50712;49.506;10.400;2022-11-20T00:40:44;31.34;28.14;37.82;;
64393;Laerm;50712;49.506;10.400;2022-11-20T00:41:15;31.15;27.38;47.56;;
64393;Laerm;50712;49.506;10.400;2022-11-20T00:41:45;28.53;27.15;36.38;;
64393;Laerm;50712;49.506;10.400;2022-11-20T00:42:16;28.42;27.14;37.18;;
64393;Laerm;50712;49.506;10.400;2022-11-20T00:42:46;28.31;27.00;38.29;;
64393;Laerm;50712;49.506;10.400;2022-11-20T00:43:47;28.41;27.19;34.27;;
64393;Laerm;50712;49.506;10.400;2022-11-20T00:44:17;28.35;27.14;32.75;;
64393;Laerm;50712;49.506;10.400;2022-11-20T00:44:48;28.41;27.14;36.17;;
64393;Laerm;50712;49.506;10.400;2022-11-20T00:45:18;28.57;26.89;44.01;;
64393;Laerm;50712;49.506;10.400;2022-11-20T00:45:48;28.57;27.37;33.39;;
64393;Laerm;50712;49.506;10.400;2022-11-20T00:46:21;28.40;27.26;30.34;;
64393;Laerm;50712;49.506;10.400;2022-11-20T00:46:52;28.36;27.14;36.90;;
64393;Laerm;50712;49.506;10.400;2022-11-20T00:47:22;28.41;26.77;36.55;;
64393;Laerm;50712;49.506;10.400;2022-11-20T00:47:52;28.35;26.84;30.85;;
64393;Laerm;50712;49.506;10.400;2022-11-20T00:48:23;28.37;27.36;33.12;;
64393;Laerm;50712;49.506;10.400;2022-11-20T00:48:53;28.33;27.03;31.55;;
64393;Laerm;50712;49.506;10.400;2022-11-20T00:49:24;28.33;27.23;34.94;;
64393;Laerm;50712;49.506;10.400;2022-11-20T00:49:54;28.32;26.72;31.16;;
64393;Laerm;50712;49.506;10.400;2022-11-20T00:50:25;28.32;27.26;34.41;;
64393;Laerm;50712;49.506;10.400;2022-11-20T00:50:55;28.52;27.20;37.49;;
64393;Laerm;50712;49.506;10.400;2022-11-20T00:51:26;28.30;27.13;30.29;;
64393;Laerm;50712;49.506;10.400;2022-11-20T00:51:57;28.35;27.25;33.40;;
64393;Laerm;50712;49.506;10.400;2022-11-20T00:52:27;28.26;27.10;31.09;;
64393;Laerm;50712;49.506;10.400;2022-11-20T00:52:58;28.40;26.96;37.38;;
64393;Laerm;50712;49.506;10.400;2022-11-20T00:53:28;28.27;26.84;32.68;;
64393;Laerm;50712;49.506;10.400;2022-11-20T00:53:58;28.24;27.08;31.49;;
64393;Laerm;50712;49.506;10.400;2022-11-20T00:54:30;28.42;26.94;39.56;;
64393;Laerm;50712;49.506;10.400;2022-11-20T00:55:00;29.88;27.62;37.50;;
64393;Laerm;50712;49.506;10.400;2022-11-20T00:55:30;28.53;27.47;30.69;;
64393;Laerm;50712;49.506;10.400;2022-11-20T00:56:09;29.31;27.05;50.74;;
64393;Laerm;50712;49.506;10.400;2022-11-20T00:56:40;28.42;27.05;32.89;;
64393;Laerm;50712;49.506;10.400;2022-11-20T00:57:10;28.54;27.39;32.36;;
64393;Laerm;50712;49.506;10.400;2022-11-20T00:57:41;28.39;27.30;34.69;;
64393;Laerm;50712;49.506;10.400;2022-11-20T00:58:43;29.05;27.51;32.02;;
64393;Laerm;50712;49.506;10.400;2022-11-20T00:59:13;28.60;27.32;34.04;;
64393;Laerm;50712;49.506;10.400;2022-11-20T00:59:44;28.46;27.39;30.88;;
64393;Laerm;50712;49.506;10.400;2022-11-20T01:00:15;28.48;27.24;37.76;;
64393;Laerm;50712;49.506;10.400;2022-11-20T01:00:45;28.45;27.25;32.83;;
64393;Laerm;50712;49.506;10.400;2022-11-20T01:01:18;28.29;27.01;30.36;;
64393;Laerm;50712;49.506;10.400;2022-11-20T01:01:48;28.54;27.36;31.14;;
64393;Laerm;50712;49.506;10.400;2022-11-20T01:02:19;28.48;27.01;30.13;;
64393;Laerm;50712;49.506;10.400;2022-11-20T01:02:49;28.30;27.18;30.17;;
64393;Laerm;50712;49.506;10.400;2022-11-20T01:03:19;28.31;26.88;34.19;;
64393;Laerm;50712;49.506;10.400;2022-11-20T01:03:51;28.37;27.01;35.39;;
64393;Laerm;50712;49.506;10.400;2022-11-20T01:04:22;28.34;26.82;30.14;;
64393;Laerm;50712;49.506;10.400;2022-11-20T01:04:52;28.35;27.20;35.23;;
64393;Laerm;50712;49.506;10.400;2022-11-20T01:05:22;28.34;27.13;30.52;;
64393;Laerm;50712;49.506;10.400;2022-11-20T01:05:53;28.31;27.04;31.15;;
64393;Laerm;50712;49.506;10.400;2022-11-20T01:06:53;28.50;27.26;35.06;;
64393;Laerm;50712;49.506;10.400;2022-11-20T01:07:23;28.38;27.27;33.59;;
64393;Laerm;50712;49.506;10.400;2022-11-20T01:07:54;28.38;26.95;32.38;;
64393;Laerm;50712;49.506;10.400;2022-11-20T01:08:24;28.33;27.24;29.49;;
64393;Laerm;50712;49.506;10.400;2022-11-20T01:08:57;28.33;27.28;29.46;;
64393;Laerm;50712;49.506;10.400;2022-11-20T01:09:28;28.37;26.93;35.33;;
64393;Laerm;50712;49.506;10.400;2022-11-20T01:09:58;28.38;27.30;29.81;;
64393;Laerm;50712;49.506;10.400;2022-11-20T01:10:29;28.38;27.26;29.64;;
64393;Laerm;50712;49.506;10.400;2022-11-20T01:11:01;28.48;26.96;30.06;;
64393;Laerm;50712;49.506;10.400;2022-11-20T01:11:35;28.66;27.04;33.57;;
64393;Laerm;50712;49.506;10.400;2022-11-20T01:12:06;28.32;27.09;29.48;;
64393;Laerm;50712;49.506;10.400;2022-11-20T01:12:36;28.36;27.29;29.56;;
64393;Laerm;50712;49.506;10.400;2022-11-20T01:13:06;28.52;27.15;41.96;;
64393;Laerm;50712;49.506;10.400;2022-11-20T01:13:56;28.50;26.95;42.14;;
64393;Laerm;50712;49.506;10.400;2022-11-20T01:14:27;28.41;27.25;33.16;;
64393;Laerm;50712;49.506;10.400;2022-11-20T01:14:57;28.40;26.97;40.02;;
64393;Laerm;50712;49.506;10.400;2022-11-20T01:15:28;28.41;27.16;35.85;;
64393;Laerm;50712;49.506;10.400;2022-11-20T01:16:13;28.55;27.44;30.89;;
64393;Laerm;50712;49.506;10.400;2022-11-20T01:16:46;28.44;27.15;30.27;;
64393;Laerm;50712;49.506;10.400;2022-11-20T01:17:18;28.46;27.39;29.87;;
64393;Laerm;50712;49.506;10.400;2022-11-20T01:17:48;28.38;27.08;31.58;;
64393;Laerm;50712;49.506;10.400;2022-11-20T01:18:18;28.33;27.14;30.06;;
64393;Laerm;50712;49.506;10.400;2022-11-20T01:19:22;28.40;27.10;32.15;;
64393;Laerm;50712;49.506;10.400;2022-11-20T01:19:52;29.15;27.33;34.83;;
64393;Laerm;50712;49.506;10.400;2022-11-20T01:20:23;30.71;27.64;46.79;;
64393;Laerm;50712;49.506;10.400;2022-11-20T01:20:53;29.00;27.85;30.52;;
64393;Laerm;50712;49.506;10.400;2022-11-20T01:21:29;29.36;27.86;39.96;;
64393;Laerm;50712;49.506;10.400;2022-11-20T01:22:00;28.81;27.28;36.54;;
64393;Laerm;50712;49.506;10.400;2022-11-20T01:22:30;28.45;27.23;31.63;;
64393;Laerm;50712;49.506;10.400;2022-11-20T01:23:02;28.48;27.23;31.85;;
64393;Laerm;50712;49.506;10.400;2022-11-20T01:23:37;28.59;27.24;41.43;;
64393;Laerm;50712;49.506;10.400;2022-11-20T01:24:11;28.55;27.25;31.86;;
64393;Laerm;50712;49.506;10.400;2022-11-20T01:24:42;28.76;27.25;34.58;;
64393;Laerm;50712;49.506;10.400;2022-11-20T01:25:12;39.20;28.45;49.59;;
64393;Laerm;50712;49.506;10.400;2022-11-20T01:25:42;45.58;34.50;56.64;;
64393;Laerm;50712;49.506;10.400;2022-11-20T01:26:16;43.41;35.89;50.90;;
64393;Laerm;50712;49.506;10.400;2022-11-20T01:26:49;38.50;30.47;49.99;;
64393;Laerm;50712;49.506;10.400;2022-11-20T01:27:19;33.49;28.80;41.93;;
64393;Laerm;50712;49.506;10.400;2022-11-20T01:28:20;29.48;28.02;32.62;;
64393;Laerm;50712;49.506;10.400;2022-11-20T01:28:51;29.04;27.72;35.13;;
64393;Laerm;50712;49.506;10.400;2022-11-20T01:29:23;29.33;28.16;36.46;;
64393;Laerm;50712;49.506;10.400;2022-11-20T01:29:54;29.77;27.76;48.82;;
64393;Laerm;50712;49.506;10.400;2022-11-20T01:30:24;28.95;27.70;37.89;;
64393;Laerm;50712;49.506;10.400;2022-11-20T01:30:55;28.58;27.52;29.69;;
64393;Laerm;50712;49.506;10.400;2022-11-20T01:31:33;28.59;27.40;31.17;;
64393;Laerm;50712;49.506;10.400;2022-11-20T01:32:04;28.53;27.49;34.79;;
64393;Laerm;50712;49.506;10.400;2022-11-20T01:32:34;28.50;27.31;30.40;;
64393;Laerm;50712;49.506;10.400;2022-11-20T01:33:05;28.45;27.22;36.29;;
64393;Laerm;50712;49.506;10.400;2022-11-20T01:33:35;28.42;27.18;34.22;;
64393;Laerm;50712;49.506;10.400;2022-11-20T01:34:09;28.36;27.11;29.68;;
64393;Laerm;50712;49.506;10.400;2022-11-20T01:34:40;28.50;27.18;32.32;;
64393;Laerm;50712;49.506;10.400;2022-11-20T01:35:10;28.58;27.13;29.73;;
64393;Laerm;50712;49.506;10.400;2022-11-20T01:35:41;28.46;27.13;34.68;;
64393;Laerm;50712;49.506;10.400;2022-11-20T01:36:12;28.45;27.38;29.53;;
64393;Laerm;50712;49.506;10.400;2022-11-20T01:36:43;28.42;27.32;31.94;;
64393;Laerm;50712;49.506;10.400;2022-11-20T01:37:13;28.38;27.10;29.80;;
64393;Laerm;50712;49.506;10.400;2022-11-20T01:38:17;28.52;27.31;30.12;;
64393;Laerm;50712;49.506;10.400;2022-11-20T01:38:51;28.47;27.39;30.53;;
64393;Laerm;50712;49.506;10.400;2022-11-20T01:39:24;28.51;27.28;30.22;;
64393;Laerm;50712;49.506;10.400;2022-11-20T01:39:55;28.53;27.44;30.98;;
64393;Laerm;50712;49.506;10.400;2022-11-20T01:40:25;28.33;27.27;29.32;;
64393;Laerm;50712;49.506;10.400;2022-11-20T01:40:55;28.30;27.19;30.37;;
64393;Laerm;50712;49.506;10.400;2022-11-20T01:41:29;28.31;27.21;30.34;;
64393;Laerm;50712;49.506;10.400;2022-11-20T01:42:18;28.28;26.79;29.84;;
64393;Laerm;50712;49.506;10.400;2022-11-20T01:43:33;28.30;26.88;33.85;;
64393;Laerm;50712;49.506;10.400;2022-11-20T01:44:04;28.39;27.30;38.04;;
64393;Laerm;50712;49.506;10.400;2022-11-20T01:44:56;28.44;27.29;30.96;;
64393;Laerm;50712;49.506;10.400;2022-11-20T01:45:50;28.32;26.94;31.21;;
64393;Laerm;50712;49.506;10.400;2022-11-20T01:46:23;28.37;27.25;35.40;;
64393;Laerm;50712;49.506;10.400;2022-11-20T01:47:00;28.31;27.26;29.44;;
64393;Laerm;50712;49.506;10.400;2022-11-20T01:47:38;28.35;27.35;30.37;;
64393;Laerm;50712;49.506;10.400;2022-11-20T01:48:11;28.37;26.81;34.62;;
64393;Laerm;50712;49.506;10.400;2022-11-20T01:49:32;28.42;27.04;29.89;;
64393;Laerm;50712;49.506;10.400;2022-11-20T01:50:45;28.28;27.08;29.93;;
64393;Laerm;50712;49.506;10.400;2022-11-20T01:51:24;28.30;27.14;29.36;;
64393;Laerm;50712;49.506;10.400;2022-11-20T01:52:01;28.24;27.06;31.34;;
64393;Laerm;50712;49.506;10.400;2022-11-20T01:52:39;28.24;27.16;35.13;;
64393;Laerm;50712;49.506;10.400;2022-11-20T01:53:15;28.25;26.99;30.39;;
64393;Laerm;50712;49.506;10.400;2022-11-20T01:53:48;28.39;27.07;34.78;;
64393;Laerm;50712;49.506;10.400;2022-11-20T01:54:26;28.41;27.27;31.85;;
64393;Laerm;50712;49.506;10.400;2022-11-20T01:55:03;28.53;27.14;30.47;;
64393;Laerm;50712;49.506;10.400;2022-11-20T01:55:41;28.53;27.14;30.47;;
64393;Laerm;50712;49.506;10.400;2022-11-20T01:56:13;28.65;27.50;35.12;;
64393;Laerm;50712;49.506;10.400;2022-11-20T01:56:45;28.31;27.23;29.70;;
64393;Laerm;50712;49.506;10.400;2022-11-20T01:57:19;28.51;27.27;30.23;;
64393;Laerm;50712;49.506;10.400;2022-11-20T01:57:50;28.36;27.15;29.65;;
64393;Laerm;50712;49.506;10.400;2022-11-20T01:58:56;28.61;27.29;30.27;;
64393;Laerm;50712;49.506;10.400;2022-11-20T01:59:29;28.30;27.14;29.60;;
64393;Laerm;50712;49.506;10.400;2022-11-20T02:00:07;28.31;27.19;32.25;;
64393;Laerm;50712;49.506;10.400;2022-11-20T02:00:42;28.38;27.18;30.89;;
64393;Laerm;50712;49.506;10.400;2022-11-20T02:01:13;28.36;27.07;32.23;;
64393;Laerm;50712;49.506;10.400;2022-11-20T02:01:44;28.37;27.23;29.79;;
64393;Laerm;50712;49.506;10.400;2022-11-20T02:02:14;28.35;27.22;34.07;;
64393;Laerm;50712;49.506;10.400;2022-11-20T02:02:58;28.33;27.21;31.56;;
64393;Laerm;50712;49.506;10.400;2022-11-20T02:03:28;28.60;27.23;30.46;;
64393;Laerm;50712;49.506;10.400;2022-11-20T02:03:59;28.52;27.24;36.70;;
64393;Laerm;50712;49.506;10.400;2022-11-20T02:04:30;28.38;27.12;29.44;;
64393;Laerm;50712;49.506;10.400;2022-11-20T02:05:08;28.37;27.27;30.01;;
64393;Laerm;50712;49.506;10.400;2022-11-20T02:06:01;28.36;26.97;29.92;;
64393;Laerm;50712;49.506;10.400;2022-11-20T02:06:42;28.39;27.09;32.00;;
64393;Laerm;50712;49.506;10.400;2022-11-20T02:07:14;28.49;27.09;33.47;;
64393;Laerm;50712;49.506;10.400;2022-11-20T02:07:46;28.40;27.19;34.33;;
64393;Laerm;50712;49.506;10.400;2022-11-20T02:08:17;33.60;27.23;57.85;;
64393;Laerm;50712;49.506;10.400;2022-11-20T02:08:48;28.35;26.94;31.81;;
64393;Laerm;50712;49.506;10.400;2022-11-20T02:09:18;28.91;27.18;32.83;;
64393;Laerm;50712;49.506;10.400;2022-11-20T02:09:49;33.96;27.68;43.64;;
64393;Laerm;50712;49.506;10.400;2022-11-20T02:10:50;28.76;27.62;31.91;;
64393;Laerm;50712;49.506;10.400;2022-11-20T02:11:21;28.92;27.44;32.71;;
64393;Laerm;50712;49.506;10.400;2022-11-20T02:11:52;28.53;27.41;31.52;;
64393;Laerm;50712;49.506;10.400;2022-11-20T02:12:23;28.59;27.32;38.82;;
64393;Laerm;50712;49.506;10.400;2022-11-20T02:13:12;28.47;27.02;34.19;;
64393;Laerm;50712;49.506;10.400;2022-11-20T02:14:01;30.46;27.62;37.50;;
64393;Laerm;50712;49.506;10.400;2022-11-20T02:14:31;28.68;27.10;37.16;;
64393;Laerm;50712;49.506;10.400;2022-11-20T02:15:02;28.44;27.39;30.82;;
64393;Laerm;50712;49.506;10.400;2022-11-20T02:15:33;33.59;27.28;43.48;;
64393;Laerm;50712;49.506;10.400;2022-11-20T02:16:04;39.96;31.35;53.76;;
64393;Laerm;50712;49.506;10.400;2022-11-20T02:16:43;33.67;28.35;39.91;;
64393;Laerm;50712;49.506;10.400;2022-11-20T02:17:15;29.42;27.77;32.92;;
64393;Laerm;50712;49.506;10.400;2022-11-20T02:17:45;28.73;27.15;33.22;;
64393;Laerm;50712;49.506;10.400;2022-11-20T02:18:48;28.86;27.49;38.26;;
64393;Laerm;50712;49.506;10.400;2022-11-20T02:19:26;28.73;27.37;32.76;;
64393;Laerm;50712;49.506;10.400;2022-11-20T02:19:57;28.55;27.27;33.15;;
64393;Laerm;50712;49.506;10.400;2022-11-20T02:20:28;28.59;27.16;34.11;;
64393;Laerm;50712;49.506;10.400;2022-11-20T02:21:37;28.58;27.19;33.27;;
64393;Laerm;50712;49.506;10.400;2022-11-20T02:22:26;28.75;27.56;31.38;;
64393;Laerm;50712;49.506;10.400;2022-11-20T02:23:09;33.23;27.70;61.64;;
64393;Laerm;50712;49.506;10.400;2022-11-20T02:24:09;29.09;27.82;40.62;;
64393;Laerm;50712;49.506;10.400;2022-11-20T02:24:40;30.97;27.69;51.33;;
64393;Laerm;50712;49.506;10.400;2022-11-20T02:25:13;28.88;27.55;38.31;;
64393;Laerm;50712;49.506;10.400;2022-11-20T02:25:45;32.08;27.34;58.97;;
64393;Laerm;50712;49.506;10.400;2022-11-20T02:26:18;28.91;27.12;45.00;;
64393;Laerm;50712;49.506;10.400;2022-11-20T02:27:02;28.92;27.34;43.56;;
64393;Laerm;50712;49.506;10.400;2022-11-20T02:27:33;28.56;27.22;30.71;;
64393;Laerm;50712;49.506;10.400;2022-11-20T02:28:04;32.74;27.18;50.59;;
64393;Laerm;50712;49.506;10.400;2022-11-20T02:28:35;38.52;31.20;57.04;;
64393;Laerm;50712;49.506;10.400;2022-11-20T02:29:05;36.82;28.79;43.54;;
64393;Laerm;50712;49.506;10.400;2022-11-20T02:29:43;35.94;29.53;46.43;;
64393;Laerm;50712;49.506;10.400;2022-11-20T02:30:15;49.55;36.83;58.47;;
64393;Laerm;50712;49.506;10.400;2022-11-20T02:30:45;48.61;39.45;56.76;;
64393;Laerm;50712;49.506;10.400;2022-11-20T02:31:16;46.58;31.81;54.90;;
64393;Laerm;50712;49.506;10.400;2022-11-20T02:31:46;40.80;31.20;48.16;;
64393;Laerm;50712;49.506;10.400;2022-11-20T02:32:22;34.92;29.12;44.76;;
64393;Laerm;50712;49.506;10.400;2022-11-20T02:32:53;31.02;27.93;52.29;;
64393;Laerm;50712;49.506;10.400;2022-11-20T02:33:23;29.30;27.54;43.62;;
64393;Laerm;50712;49.506;10.400;2022-11-20T02:34:28;29.24;27.77;37.54;;
64393;Laerm;50712;49.506;10.400;2022-11-20T02:35:35;28.88;27.51;36.27;;
64393;Laerm;50712;49.506;10.400;2022-11-20T02:35:56;28.59;27.26;35.06;;
64393;Laerm;50712;49.506;10.400;2022-11-20T02:36:28;28.48;27.41;32.27;;
64393;Laerm;50712;49.506;10.400;2022-11-20T02:37:01;28.64;27.53;31.11;;
64393;Laerm;50712;49.506;10.400;2022-11-20T02:37:34;28.68;27.59;31.48;;
64393;Laerm;50712;49.506;10.400;2022-11-20T02:38:07;28.59;27.37;32.21;;
64393;Laerm;50712;49.506;10.400;2022-11-20T02:38:37;28.42;27.06;29.65;;
64393;Laerm;50712;49.506;10.400;2022-11-20T02:39:09;28.57;27.05;45.50;;
64393;Laerm;50712;49.506;10.400;2022-11-20T02:39:44;29.38;27.48;50.46;;
64393;Laerm;50712;49.506;10.400;2022-11-20T02:40:16;32.04;27.09;58.95;;
64393;Laerm;50712;49.506;10.400;2022-11-20T02:40:46;28.68;27.15;39.96;;
64393;Laerm;50712;49.506;10.400;2022-11-20T02:41:17;28.40;26.94;32.59;;
64393;Laerm;50712;49.506;10.400;2022-11-20T02:41:47;28.35;27.31;32.51;;
64393;Laerm;50712;49.506;10.400;2022-11-20T02:42:18;28.44;27.20;29.84;;
64393;Laerm;50712;49.506;10.400;2022-11-20T02:42:55;28.42;27.08;33.68;;
64393;Laerm;50712;49.506;10.400;2022-11-20T02:43:26;28.51;27.37;36.73;;
64393;Laerm;50712;49.506;10.400;2022-11-20T02:43:56;28.59;27.36;32.31;;
64393;Laerm;50712;49.506;10.400;2022-11-20T02:44:26;28.64;27.47;40.50;;
64393;Laerm;50712;49.506;10.400;2022-11-20T02:44:57;29.42;27.40;46.90;;
64393;Laerm;50712;49.506;10.400;2022-11-20T02:45:27;29.04;27.43;48.05;;
64393;Laerm;50712;49.506;10.400;2022-11-20T02:45:57;28.62;27.24;36.27;;
64393;Laerm;50712;49.506;10.400;2022-11-20T02:46:28;28.45;27.35;41.24;;
64393;Laerm;50712;49.506;10.400;2022-11-20T02:46:58;28.56;27.09;43.18;;
64393;Laerm;50712;49.506;10.400;2022-11-20T02:47:29;28.54;27.34;30.69;;
64393;Laerm;50712;49.506;10.400;2022-11-20T02:47:59;28.41;26.89;35.11;;
64393;Laerm;50712;49.506;10.400;2022-11-20T02:48:29;28.59;27.30;39.46;;
64393;Laerm;50712;49.506;10.400;2022-11-20T02:49:02;28.74;27.39;41.70;;
64393;Laerm;50712;49.506;10.400;2022-11-20T02:49:32;28.50;27.19;32.56;;
64393;Laerm;50712;49.506;10.400;2022-11-20T02:50:04;28.91;27.18;42.75;;
64393;Laerm;50712;49.506;10.400;2022-11-20T02:50:38;29.12;27.52;46.42;;
64393;Laerm;50712;49.506;10.400;2022-11-20T02:51:09;28.60;27.19;33.46;;
64393;Laerm;50712;49.506;10.400;2022-11-20T02:51:40;28.46;27.14;32.78;;
64393;Laerm;50712;49.506;10.400;2022-11-20T02:52:10;28.72;27.59;35.53;;
64393;Laerm;50712;49.506;10.400;2022-11-20T02:52:41;28.78;27.42;39.00;;
64393;Laerm;50712;49.506;10.400;2022-11-20T02:53:12;28.54;27.22;32.71;;
64393;Laerm;50712;49.506;10.400;2022-11-20T02:53:42;28.32;27.04;30.56;;
64393;Laerm;50712;49.506;10.400;2022-11-20T02:54:12;28.33;26.71;31.46;;
64393;Laerm;50712;49.506;10.400;2022-11-20T02:54:43;28.35;27.18;34.82;;
64393;Laerm;50712;49.506;10.400;2022-11-20T02:55:13;28.46;27.03;39.33;;
64393;Laerm;50712;49.506;10.400;2022-11-20T02:55:43;28.37;27.28;37.42;;
64393;Laerm;50712;49.506;10.400;2022-11-20T02:56:14;28.63;27.06;36.13;;
64393;Laerm;50712;49.506;10.400;2022-11-20T02:56:44;29.32;27.52;44.35;;
64393;Laerm;50712;49.506;10.400;2022-11-20T02:57:14;29.53;27.42;45.34;;
64393;Laerm;50712;49.506;10.400;2022-11-20T02:57:45;28.76;27.25;38.36;;
64393;Laerm;50712;49.506;10.400;2022-11-20T02:58:15;29.21;27.59;45.29;;
64393;Laerm;50712;49.506;10.400;2022-11-20T02:58:46;30.92;27.31;47.97;;
64393;Laerm;50712;49.506;10.400;2022-11-20T02:59:16;28.65;27.58;36.61;;
64393;Laerm;50712;49.506;10.400;2022-11-20T02:59:46;29.71;27.52;43.70;;
64393;Laerm;50712;49.506;10.400;2022-11-20T03:00:17;28.98;27.42;42.52;;
64393;Laerm;50712;49.506;10.400;2022-11-20T03:00:47;30.08;27.71;51.30;;
64393;Laerm;50712;49.506;10.400;2022-11-20T03:01:18;29.38;27.58;49.25;;
64393;Laerm;50712;49.506;10.400;2022-11-20T03:01:48;32.95;27.41;55.53;;
64393;Laerm;50712;49.506;10.400;2022-11-20T03:02:18;29.26;27.55;44.74;;
64393;Laerm;50712;49.506;10.400;2022-11-20T03:02:49;28.56;27.26;33.18;;
64393;Laerm;50712;49.506;10.400;2022-11-20T03:03:19;39.36;27.41;60.68;;
64393;Laerm;50712;49.506;10.400;2022-11-20T03:03:50;28.39;27.37;30.48;;
64393;Laerm;50712;49.506;10.400;2022-11-20T03:04:20;28.48;27.19;37.59;;
64393;Laerm;50712;49.506;10.400;2022-11-20T03:04:50;29.54;27.37;47.54;;
64393;Laerm;50712;49.506;10.400;2022-11-20T03:05:21;28.51;27.18;36.93;;
64393;Laerm;50712;49.506;10.400;2022-11-20T03:05:51;28.55;27.36;41.57;;
64393;Laerm;50712;49.506;10.400;2022-11-20T03:06:22;28.81;27.37;35.45;;
64393;Laerm;50712;49.506;10.400;2022-11-20T03:06:52;29.52;27.38;51.77;;
64393;Laerm;50712;49.506;10.400;2022-11-20T03:07:23;29.02;27.30;46.99;;
64393;Laerm;50712;49.506;10.400;2022-11-20T03:07:53;30.60;27.38;54.64;;